sensor_id;sensor_type;location;lat;lon;timestamp;P1;durP1;ratioP1;P2;durP2;ratioP2
18376;SDS011;9315;52.624;13.544;2023-06-10T00:02:23;16.47;;;3.17;;
18376;SDS011;9315;52.624;13.544;2023-06-10T00:04:53;9.73;;;2.80;;
18376;SDS011;9315;52.624;13.544;2023-06-10T00:07:21;8.73;;;3.23;;
18376;SDS011;9315;52.624;13.544;2023-06-10T00:09:48;14.90;;;3.07;;
18376;SDS011;9315;52.624;13.544;2023-06-10T00:12:16;10.73;;;3.13;;
18376;SDS011;9315;52.624;13.544;2023-06-10T00:14:44;7.57;;;3.27;;
18376;SDS011;9315;52.624;13.544;2023-06-10T00:17:11;11.60;;;3.07;;
18376;SDS011;9315;52.624;13.544;2023-06-10T00:19:38;9.70;;;2.77;;
18376;SDS011;9315;52.624;13.544;2023-06-10T00:22:07;10.37;;;2.77;;
18376;SDS011;9315;52.624;13.544;2023-06-10T00:24:37;10.37;;;2.93;;
18376;SDS011;9315;52.624;13.544;2023-06-10T00:27:05;12.53;;;3.40;;
18376;SDS011;9315;52.624;13.544;2023-06-10T00:29:33;11.87;;;2.67;;
18376;SDS011;9315;52.624;13.544;2023-06-10T00:32:01;9.57;;;2.97;;
18376;SDS011;9315;52.624;13.544;2023-06-10T00:34:28;7.67;;;2.63;;
18376;SDS011;9315;52.624;13.544;2023-06-10T00:36:56;7.17;;;2.83;;
18376;SDS011;9315;52.624;13.544;2023-06-10T00:39:23;11.17;;;3.10;;
18376;SDS011;9315;52.624;13.544;2023-06-10T00:41:50;11.80;;;3.27;;
18376;SDS011;9315;52.624;13.544;2023-06-10T00:44:17;9.07;;;3.10;;
18376;SDS011;9315;52.624;13.544;2023-06-10T00:46:45;11.57;;;2.87;;
18376;SDS011;9315;52.624;13.544;2023-06-10T00:49:12;9.67;;;2.87;;
18376;SDS011;9315;52.624;13.544;2023-06-10T00:51:39;10.43;;;2.97;;
18376;SDS011;9315;52.624;13.544;2023-06-10T00:54:07;8.40;;;3.13;;
18376;SDS011;9315;52.624;13.544;2023-06-10T00:56:35;9.00;;;2.70;;
18376;SDS011;9315;52.624;13.544;2023-06-10T00:59:02;8.23;;;2.70;;
18376;SDS011;9315;52.624;13.544;2023-06-10T01:01:29;12.17;;;3.07;;
18376;SDS011;9315;52.624;13.544;2023-06-10T01:03:58;9.13;;;3.17;;
18376;SDS011;9315;52.624;13.544;2023-06-10T01:06:36;14.20;;;3.40;;
18376;SDS011;9315;52.624;13.544;2023-06-10T01:10:05;12.60;;;3.20;;
18376;SDS011;9315;52.624;13.544;2023-06-10T01:13:00;8.33;;;3.00;;
18376;SDS011;9315;52.624;13.544;2023-06-10T01:15:30;12.40;;;3.20;;
18376;SDS011;9315;52.624;13.544;2023-06-10T01:17:59;10.13;;;2.93;;
18376;SDS011;9315;52.624;13.544;2023-06-10T01:20:37;9.17;;;2.97;;
18376;SDS011;9315;52.624;13.544;2023-06-10T01:23:06;7.93;;;2.77;;
18376;SDS011;9315;52.624;13.544;2023-06-10T01:25:36;8.97;;;2.97;;
18376;SDS011;9315;52.624;13.544;2023-06-10T01:33:47;14.63;;;3.50;;
18376;SDS011;9315;52.624;13.544;2023-06-10T01:36:19;12.90;;;3.00;;
18376;SDS011;9315;52.624;13.544;2023-06-10T01:38:49;7.50;;;2.80;;
18376;SDS011;9315;52.624;13.544;2023-06-10T01:41:19;10.60;;;3.60;;
18376;SDS011;9315;52.624;13.544;2023-06-10T01:43:47;13.27;;;3.37;;
18376;SDS011;9315;52.624;13.544;2023-06-10T01:46:15;10.20;;;3.63;;
18376;SDS011;9315;52.624;13.544;2023-06-10T01:48:46;11.70;;;3.33;;
18376;SDS011;9315;52.624;13.544;2023-06-10T01:51:13;8.80;;;3.33;;
18376;SDS011;9315;52.624;13.544;2023-06-10T01:53:41;9.87;;;3.00;;
18376;SDS011;9315;52.624;13.544;2023-06-10T01:56:08;14.77;;;3.47;;
18376;SDS011;9315;52.624;13.544;2023-06-10T01:58:36;11.23;;;3.73;;
18376;SDS011;9315;52.624;13.544;2023-06-10T02:01:03;9.23;;;2.90;;
18376;SDS011;9315;52.624;13.544;2023-06-10T02:03:30;8.13;;;3.40;;
18376;SDS011;9315;52.624;13.544;2023-06-10T02:05:57;10.30;;;3.30;;
18376;SDS011;9315;52.624;13.544;2023-06-10T02:08:24;10.50;;;3.43;;
18376;SDS011;9315;52.624;13.544;2023-06-10T02:10:53;10.30;;;3.37;;
18376;SDS011;9315;52.624;13.544;2023-06-10T02:13:21;11.07;;;3.67;;
18376;SDS011;9315;52.624;13.544;2023-06-10T02:15:48;9.70;;;3.30;;
18376;SDS011;9315;52.624;13.544;2023-06-10T02:18:15;10.00;;;3.40;;
18376;SDS011;9315;52.624;13.544;2023-06-10T02:20:42;8.73;;;3.73;;
18376;SDS011;9315;52.624;13.544;2023-06-10T02:23:09;14.93;;;3.63;;
18376;SDS011;9315;52.624;13.544;2023-06-10T02:25:36;13.43;;;3.97;;
18376;SDS011;9315;52.624;13.544;2023-06-10T02:28:03;10.47;;;3.43;;
18376;SDS011;9315;52.624;13.544;2023-06-10T02:30:31;8.93;;;3.10;;
18376;SDS011;9315;52.624;13.544;2023-06-10T02:32:58;10.10;;;3.30;;
18376;SDS011;9315;52.624;13.544;2023-06-10T02:35:25;8.33;;;3.67;;
18376;SDS011;9315;52.624;13.544;2023-06-10T02:37:53;11.53;;;3.27;;
18376;SDS011;9315;52.624;13.544;2023-06-10T02:40:20;10.57;;;3.80;;
18376;SDS011;9315;52.624;13.544;2023-06-10T02:42:47;8.30;;;3.27;;
18376;SDS011;9315;52.624;13.544;2023-06-10T02:45:14;10.63;;;3.43;;
18376;SDS011;9315;52.624;13.544;2023-06-10T02:47:41;8.20;;;3.57;;
18376;SDS011;9315;52.624;13.544;2023-06-10T02:50:09;10.90;;;3.33;;
18376;SDS011;9315;52.624;13.544;2023-06-10T02:52:36;6.97;;;3.73;;
18376;SDS011;9315;52.624;13.544;2023-06-10T02:55:03;6.27;;;3.00;;
18376;SDS011;9315;52.624;13.544;2023-06-10T02:57:32;7.93;;;3.43;;
18376;SDS011;9315;52.624;13.544;2023-06-10T02:59:59;8.53;;;3.23;;
18376;SDS011;9315;52.624;13.544;2023-06-10T03:02:30;12.73;;;4.23;;
18376;SDS011;9315;52.624;13.544;2023-06-10T03:04:57;13.83;;;3.80;;
18376;SDS011;9315;52.624;13.544;2023-06-10T03:07:25;6.77;;;2.97;;
18376;SDS011;9315;52.624;13.544;2023-06-10T03:09:52;9.43;;;3.80;;
18376;SDS011;9315;52.624;13.544;2023-06-10T03:12:19;6.83;;;3.30;;
18376;SDS011;9315;52.624;13.544;2023-06-10T03:14:46;12.00;;;4.10;;
18376;SDS011;9315;52.624;13.544;2023-06-10T03:17:13;10.67;;;3.53;;
18376;SDS011;9315;52.624;13.544;2023-06-10T03:19:40;9.30;;;3.90;;
18376;SDS011;9315;52.624;13.544;2023-06-10T03:22:08;8.23;;;3.57;;
18376;SDS011;9315;52.624;13.544;2023-06-10T03:24:41;13.40;;;3.70;;
18376;SDS011;9315;52.624;13.544;2023-06-10T03:27:10;13.17;;;3.80;;
18376;SDS011;9315;52.624;13.544;2023-06-10T03:29:37;8.90;;;3.60;;
18376;SDS011;9315;52.624;13.544;2023-06-10T03:32:07;9.47;;;3.57;;
18376;SDS011;9315;52.624;13.544;2023-06-10T03:34:35;8.97;;;3.60;;
18376;SDS011;9315;52.624;13.544;2023-06-10T03:37:02;9.07;;;4.27;;
18376;SDS011;9315;52.624;13.544;2023-06-10T03:39:29;17.67;;;3.50;;
18376;SDS011;9315;52.624;13.544;2023-06-10T03:41:57;12.77;;;4.13;;
18376;SDS011;9315;52.624;13.544;2023-06-10T03:44:24;11.50;;;3.90;;
18376;SDS011;9315;52.624;13.544;2023-06-10T03:46:55;9.40;;;3.80;;
18376;SDS011;9315;52.624;13.544;2023-06-10T03:49:23;12.40;;;4.07;;
18376;SDS011;9315;52.624;13.544;2023-06-10T03:51:53;13.03;;;4.20;;
18376;SDS011;9315;52.624;13.544;2023-06-10T03:54:20;9.33;;;3.40;;
18376;SDS011;9315;52.624;13.544;2023-06-10T03:56:48;9.20;;;3.73;;
18376;SDS011;9315;52.624;13.544;2023-06-10T03:59:15;9.50;;;3.90;;
18376;SDS011;9315;52.624;13.544;2023-06-10T04:01:43;9.90;;;3.83;;
18376;SDS011;9315;52.624;13.544;2023-06-10T04:04:13;10.47;;;3.70;;
18376;SDS011;9315;52.624;13.544;2023-06-10T04:06:44;9.97;;;4.07;;
18376;SDS011;9315;52.624;13.544;2023-06-10T04:09:12;11.93;;;4.10;;
18376;SDS011;9315;52.624;13.544;2023-06-10T04:11:39;10.13;;;4.17;;
18376;SDS011;9315;52.624;13.544;2023-06-10T04:14:07;8.03;;;3.60;;
18376;SDS011;9315;52.624;13.544;2023-06-10T04:16:34;11.07;;;3.60;;
18376;SDS011;9315;52.624;13.544;2023-06-10T04:19:02;12.57;;;3.97;;
18376;SDS011;9315;52.624;13.544;2023-06-10T04:21:31;9.53;;;3.60;;
18376;SDS011;9315;52.624;13.544;2023-06-10T04:23:59;9.70;;;4.33;;
18376;SDS011;9315;52.624;13.544;2023-06-10T04:26:27;18.93;;;4.13;;
18376;SDS011;9315;52.624;13.544;2023-06-10T04:28:54;8.20;;;3.70;;
18376;SDS011;9315;52.624;13.544;2023-06-10T04:31:21;11.57;;;3.77;;
18376;SDS011;9315;52.624;13.544;2023-06-10T04:33:48;7.63;;;4.00;;
18376;SDS011;9315;52.624;13.544;2023-06-10T04:36:16;12.87;;;3.83;;
18376;SDS011;9315;52.624;13.544;2023-06-10T04:38:43;9.40;;;3.90;;
18376;SDS011;9315;52.624;13.544;2023-06-10T04:41:10;7.97;;;3.97;;
18376;SDS011;9315;52.624;13.544;2023-06-10T04:43:37;7.87;;;3.93;;
18376;SDS011;9315;52.624;13.544;2023-06-10T04:46:05;10.20;;;3.50;;
18376;SDS011;9315;52.624;13.544;2023-06-10T04:48:34;13.60;;;3.40;;
18376;SDS011;9315;52.624;13.544;2023-06-10T04:51:02;13.97;;;5.10;;
18376;SDS011;9315;52.624;13.544;2023-06-10T04:53:29;10.63;;;3.67;;
18376;SDS011;9315;52.624;13.544;2023-06-10T04:55:57;11.07;;;4.30;;
18376;SDS011;9315;52.624;13.544;2023-06-10T04:58:24;8.77;;;3.90;;
18376;SDS011;9315;52.624;13.544;2023-06-10T05:00:51;9.73;;;3.93;;
18376;SDS011;9315;52.624;13.544;2023-06-10T05:03:19;9.43;;;3.70;;
18376;SDS011;9315;52.624;13.544;2023-06-10T05:05:47;9.23;;;4.23;;
18376;SDS011;9315;52.624;13.544;2023-06-10T05:08:14;9.30;;;3.77;;
18376;SDS011;9315;52.624;13.544;2023-06-10T05:10:41;12.93;;;3.80;;
18376;SDS011;9315;52.624;13.544;2023-06-10T05:13:08;8.03;;;4.03;;
18376;SDS011;9315;52.624;13.544;2023-06-10T05:15:35;9.90;;;3.73;;
18376;SDS011;9315;52.624;13.544;2023-06-10T05:18:03;8.67;;;3.67;;
18376;SDS011;9315;52.624;13.544;2023-06-10T05:20:32;10.27;;;3.80;;
18376;SDS011;9315;52.624;13.544;2023-06-10T05:22:59;10.73;;;4.03;;
18376;SDS011;9315;52.624;13.544;2023-06-10T05:25:28;11.13;;;4.13;;
18376;SDS011;9315;52.624;13.544;2023-06-10T05:27:59;9.53;;;3.50;;
18376;SDS011;9315;52.624;13.544;2023-06-10T05:30:26;11.20;;;4.00;;
18376;SDS011;9315;52.624;13.544;2023-06-10T05:32:53;8.50;;;4.03;;
18376;SDS011;9315;52.624;13.544;2023-06-10T05:35:22;12.03;;;3.90;;
18376;SDS011;9315;52.624;13.544;2023-06-10T05:37:49;8.23;;;3.80;;
18376;SDS011;9315;52.624;13.544;2023-06-10T05:40:17;9.30;;;4.10;;
18376;SDS011;9315;52.624;13.544;2023-06-10T05:42:44;7.60;;;3.80;;
18376;SDS011;9315;52.624;13.544;2023-06-10T05:45:11;9.07;;;3.73;;
18376;SDS011;9315;52.624;13.544;2023-06-10T05:47:39;8.83;;;3.80;;
18376;SDS011;9315;52.624;13.544;2023-06-10T05:50:06;8.67;;;3.97;;
18376;SDS011;9315;52.624;13.544;2023-06-10T05:52:35;8.37;;;4.17;;
18376;SDS011;9315;52.624;13.544;2023-06-10T05:55:03;12.97;;;3.77;;
18376;SDS011;9315;52.624;13.544;2023-06-10T05:57:31;10.80;;;3.93;;
18376;SDS011;9315;52.624;13.544;2023-06-10T05:59:58;12.17;;;4.00;;
18376;SDS011;9315;52.624;13.544;2023-06-10T06:02:26;7.67;;;3.90;;
18376;SDS011;9315;52.624;13.544;2023-06-10T06:04:54;11.67;;;4.13;;
18376;SDS011;9315;52.624;13.544;2023-06-10T06:07:21;10.40;;;4.23;;
18376;SDS011;9315;52.624;13.544;2023-06-10T06:09:48;8.67;;;4.20;;
18376;SDS011;9315;52.624;13.544;2023-06-10T06:12:15;11.57;;;4.33;;
18376;SDS011;9315;52.624;13.544;2023-06-10T06:14:43;8.07;;;4.00;;
18376;SDS011;9315;52.624;13.544;2023-06-10T06:17:11;8.43;;;4.13;;
18376;SDS011;9315;52.624;13.544;2023-06-10T06:19:38;10.53;;;4.00;;
18376;SDS011;9315;52.624;13.544;2023-06-10T06:22:06;9.57;;;4.40;;
18376;SDS011;9315;52.624;13.544;2023-06-10T06:24:33;8.70;;;4.20;;
18376;SDS011;9315;52.624;13.544;2023-06-10T06:27:00;11.50;;;4.63;;
18376;SDS011;9315;52.624;13.544;2023-06-10T06:29:27;7.37;;;3.93;;
18376;SDS011;9315;52.624;13.544;2023-06-10T06:31:56;6.90;;;3.80;;
18376;SDS011;9315;52.624;13.544;2023-06-10T06:34:24;12.87;;;4.30;;
18376;SDS011;9315;52.624;13.544;2023-06-10T06:36:51;9.70;;;3.90;;
18376;SDS011;9315;52.624;13.544;2023-06-10T06:39:18;14.60;;;3.70;;
18376;SDS011;9315;52.624;13.544;2023-06-10T06:41:46;8.23;;;4.43;;
18376;SDS011;9315;52.624;13.544;2023-06-10T06:44:13;9.80;;;4.07;;
18376;SDS011;9315;52.624;13.544;2023-06-10T06:46:40;8.10;;;3.87;;
18376;SDS011;9315;52.624;13.544;2023-06-10T06:49:07;10.33;;;3.43;;
18376;SDS011;9315;52.624;13.544;2023-06-10T06:51:34;14.20;;;4.30;;
18376;SDS011;9315;52.624;13.544;2023-06-10T06:54:03;10.13;;;4.07;;
18376;SDS011;9315;52.624;13.544;2023-06-10T06:56:31;10.63;;;4.43;;
18376;SDS011;9315;52.624;13.544;2023-06-10T06:58:59;6.70;;;4.00;;
18376;SDS011;9315;52.624;13.544;2023-06-10T07:01:26;11.23;;;4.37;;
18376;SDS011;9315;52.624;13.544;2023-06-10T07:03:53;6.90;;;3.47;;
18376;SDS011;9315;52.624;13.544;2023-06-10T07:06:20;7.00;;;4.10;;
18376;SDS011;9315;52.624;13.544;2023-06-10T07:08:48;11.02;;;4.53;;
18376;SDS011;9315;52.624;13.544;2023-06-10T07:11:16;9.50;;;4.40;;
18376;SDS011;9315;52.624;13.544;2023-06-10T07:13:44;8.63;;;4.40;;
18376;SDS011;9315;52.624;13.544;2023-06-10T07:16:11;9.10;;;4.30;;
18376;SDS011;9315;52.624;13.544;2023-06-10T07:18:38;8.47;;;3.73;;
18376;SDS011;9315;52.624;13.544;2023-06-10T07:21:05;8.07;;;3.72;;
18376;SDS011;9315;52.624;13.544;2023-06-10T07:23:32;10.37;;;4.17;;
18376;SDS011;9315;52.624;13.544;2023-06-10T07:26:00;10.10;;;4.03;;
18376;SDS011;9315;52.624;13.544;2023-06-10T07:28:27;14.97;;;3.90;;
18376;SDS011;9315;52.624;13.544;2023-06-10T07:30:54;11.30;;;3.67;;
18376;SDS011;9315;52.624;13.544;2023-06-10T07:33:21;7.35;;;4.07;;
18376;SDS011;9315;52.624;13.544;2023-06-10T07:35:49;15.83;;;4.37;;
18376;SDS011;9315;52.624;13.544;2023-06-10T07:38:17;7.38;;;3.83;;
18376;SDS011;9315;52.624;13.544;2023-06-10T07:40:44;6.33;;;4.07;;
18376;SDS011;9315;52.624;13.544;2023-06-10T07:43:11;15.00;;;4.40;;
18376;SDS011;9315;52.624;13.544;2023-06-10T07:45:40;9.60;;;4.10;;
18376;SDS011;9315;52.624;13.544;2023-06-10T07:48:07;9.20;;;4.15;;
18376;SDS011;9315;52.624;13.544;2023-06-10T07:50:35;10.27;;;4.38;;
18376;SDS011;9315;52.624;13.544;2023-06-10T07:53:03;12.52;;;4.45;;
18376;SDS011;9315;52.624;13.544;2023-06-10T07:55:30;10.02;;;4.10;;
18376;SDS011;9315;52.624;13.544;2023-06-10T07:57:57;9.27;;;4.20;;
18376;SDS011;9315;52.624;13.544;2023-06-10T08:00:24;11.10;;;4.18;;
18376;SDS011;9315;52.624;13.544;2023-06-10T08:02:51;10.38;;;4.13;;
18376;SDS011;9315;52.624;13.544;2023-06-10T08:05:19;8.95;;;3.80;;
18376;SDS011;9315;52.624;13.544;2023-06-10T08:07:47;9.23;;;3.85;;
18376;SDS011;9315;52.624;13.544;2023-06-10T08:10:15;8.48;;;3.97;;
18376;SDS011;9315;52.624;13.544;2023-06-10T08:12:42;11.23;;;4.57;;
18376;SDS011;9315;52.624;13.544;2023-06-10T08:15:09;9.35;;;3.75;;
18376;SDS011;9315;52.624;13.544;2023-06-10T08:17:37;15.80;;;3.72;;
18376;SDS011;9315;52.624;13.544;2023-06-10T08:20:06;9.38;;;3.80;;
18376;SDS011;9315;52.624;13.544;2023-06-10T08:22:34;10.88;;;4.20;;
18376;SDS011;9315;52.624;13.544;2023-06-10T08:25:01;11.75;;;4.35;;
18376;SDS011;9315;52.624;13.544;2023-06-10T08:27:28;10.55;;;4.30;;
18376;SDS011;9315;52.624;13.544;2023-06-10T08:29:59;14.60;;;4.03;;
18376;SDS011;9315;52.624;13.544;2023-06-10T08:32:27;8.70;;;4.22;;
18376;SDS011;9315;52.624;13.544;2023-06-10T08:34:54;14.77;;;4.38;;
18376;SDS011;9315;52.624;13.544;2023-06-10T08:37:21;12.13;;;3.75;;
18376;SDS011;9315;52.624;13.544;2023-06-10T08:39:48;11.18;;;3.78;;
18376;SDS011;9315;52.624;13.544;2023-06-10T08:42:22;7.60;;;3.70;;
18376;SDS011;9315;52.624;13.544;2023-06-10T08:45:00;15.05;;;4.10;;
18376;SDS011;9315;52.624;13.544;2023-06-10T08:47:29;7.18;;;4.00;;
18376;SDS011;9315;52.624;13.544;2023-06-10T08:50:03;8.20;;;3.97;;
18376;SDS011;9315;52.624;13.544;2023-06-10T08:52:37;11.25;;;4.40;;
18376;SDS011;9315;52.624;13.544;2023-06-10T08:55:17;7.07;;;3.90;;
18376;SDS011;9315;52.624;13.544;2023-06-10T08:58:01;13.10;;;4.30;;
18376;SDS011;9315;52.624;13.544;2023-06-10T09:00:29;12.40;;;3.90;;
18376;SDS011;9315;52.624;13.544;2023-06-10T09:02:58;12.88;;;4.15;;
18376;SDS011;9315;52.624;13.544;2023-06-10T09:05:33;13.45;;;3.72;;
18376;SDS011;9315;52.624;13.544;2023-06-10T09:08:02;10.25;;;4.35;;
18376;SDS011;9315;52.624;13.544;2023-06-10T09:10:32;10.65;;;4.55;;
18376;SDS011;9315;52.624;13.544;2023-06-10T09:13:00;13.90;;;4.70;;
18376;SDS011;9315;52.624;13.544;2023-06-10T09:15:27;11.77;;;4.05;;
18376;SDS011;9315;52.624;13.544;2023-06-10T09:17:54;9.07;;;4.65;;
18376;SDS011;9315;52.624;13.544;2023-06-10T09:20:22;48.03;;;5.90;;
18376;SDS011;9315;52.624;13.544;2023-06-10T09:22:50;11.35;;;4.20;;
18376;SDS011;9315;52.624;13.544;2023-06-10T09:25:20;46.92;;;5.78;;
18376;SDS011;9315;52.624;13.544;2023-06-10T09:28:08;65.80;;;6.38;;
18376;SDS011;9315;52.624;13.544;2023-06-10T09:30:41;14.75;;;4.88;;
18376;SDS011;9315;52.624;13.544;2023-06-10T09:33:10;11.65;;;3.83;;
18376;SDS011;9315;52.624;13.544;2023-06-10T09:35:48;8.63;;;4.28;;
18376;SDS011;9315;52.624;13.544;2023-06-10T09:38:19;9.15;;;4.95;;
18376;SDS011;9315;52.624;13.544;2023-06-10T09:40:52;10.70;;;4.80;;
18376;SDS011;9315;52.624;13.544;2023-06-10T09:43:21;8.98;;;4.60;;
18376;SDS011;9315;52.624;13.544;2023-06-10T09:45:51;12.40;;;4.70;;
18376;SDS011;9315;52.624;13.544;2023-06-10T09:48:22;7.13;;;4.50;;
18376;SDS011;9315;52.624;13.544;2023-06-10T09:50:50;17.60;;;4.20;;
18376;SDS011;9315;52.624;13.544;2023-06-10T09:53:17;11.18;;;4.43;;
18376;SDS011;9315;52.624;13.544;2023-06-10T09:55:45;8.85;;;3.97;;
18376;SDS011;9315;52.624;13.544;2023-06-10T09:58:12;6.03;;;3.63;;
18376;SDS011;9315;52.624;13.544;2023-06-10T10:00:40;8.77;;;3.25;;
18376;SDS011;9315;52.624;13.544;2023-06-10T10:03:07;5.43;;;2.95;;
18376;SDS011;9315;52.624;13.544;2023-06-10T10:05:34;7.47;;;3.42;;
18376;SDS011;9315;52.624;13.544;2023-06-10T10:08:02;6.88;;;3.53;;
18376;SDS011;9315;52.624;13.544;2023-06-10T10:10:31;5.70;;;3.08;;
18376;SDS011;9315;52.624;13.544;2023-06-10T10:12:59;5.97;;;3.38;;
18376;SDS011;9315;52.624;13.544;2023-06-10T10:15:28;5.00;;;3.28;;
18376;SDS011;9315;52.624;13.544;2023-06-10T10:18:07;3.22;;;2.92;;
18376;SDS011;9315;52.624;13.544;2023-06-10T10:20:46;9.30;;;3.45;;
18376;SDS011;9315;52.624;13.544;2023-06-10T10:23:19;6.13;;;3.13;;
18376;SDS011;9315;52.624;13.544;2023-06-10T10:25:59;5.53;;;3.38;;
18376;SDS011;9315;52.624;13.544;2023-06-10T10:28:34;9.18;;;3.20;;
18376;SDS011;9315;52.624;13.544;2023-06-10T10:31:15;12.03;;;2.67;;
18376;SDS011;9315;52.624;13.544;2023-06-10T10:36:22;13.80;;;5.43;;
18376;SDS011;9315;52.624;13.544;2023-06-10T10:38:50;7.40;;;3.10;;
18376;SDS011;9315;52.624;13.544;2023-06-10T10:41:21;10.88;;;3.67;;
18376;SDS011;9315;52.624;13.544;2023-06-10T10:43:50;8.57;;;4.10;;
18376;SDS011;9315;52.624;13.544;2023-06-10T10:46:18;27.87;;;4.33;;
18376;SDS011;9315;52.624;13.544;2023-06-10T10:48:47;18.03;;;4.87;;
18376;SDS011;9315;52.624;13.544;2023-06-10T10:51:20;19.90;;;4.37;;
18376;SDS011;9315;52.624;13.544;2023-06-10T10:54:09;8.40;;;4.70;;
18376;SDS011;9315;52.624;13.544;2023-06-10T10:59:51;7.93;;;4.93;;
18376;SDS011;9315;52.624;13.544;2023-06-10T11:05:13;12.23;;;5.47;;
18376;SDS011;9315;52.624;13.544;2023-06-10T11:08:00;15.43;;;6.33;;
18376;SDS011;9315;52.624;13.544;2023-06-10T11:10:31;8.47;;;6.20;;
18376;SDS011;9315;52.624;13.544;2023-06-10T11:13:18;9.17;;;5.87;;
18376;SDS011;9315;52.624;13.544;2023-06-10T11:15:48;8.60;;;5.23;;
18376;SDS011;9315;52.624;13.544;2023-06-10T11:18:23;9.60;;;5.88;;
18376;SDS011;9315;52.624;13.544;2023-06-10T11:31:42;9.88;;;4.97;;
18376;SDS011;9315;52.624;13.544;2023-06-10T11:34:21;7.93;;;5.47;;
18376;SDS011;9315;52.624;13.544;2023-06-10T11:36:51;9.23;;;4.57;;
18376;SDS011;9315;52.624;13.544;2023-06-10T11:39:19;6.40;;;4.38;;
18376;SDS011;9315;52.624;13.544;2023-06-10T11:41:49;7.43;;;3.83;;
18376;SDS011;9315;52.624;13.544;2023-06-10T11:44:18;7.15;;;4.25;;
18376;SDS011;9315;52.624;13.544;2023-06-10T11:46:47;5.95;;;4.70;;
18376;SDS011;9315;52.624;13.544;2023-06-10T11:49:16;4.22;;;3.83;;
18376;SDS011;9315;52.624;13.544;2023-06-10T11:51:43;5.82;;;3.50;;
18376;SDS011;9315;52.624;13.544;2023-06-10T11:54:15;6.53;;;4.30;;
18376;SDS011;9315;52.624;13.544;2023-06-10T11:56:43;4.60;;;3.53;;
18376;SDS011;9315;52.624;13.544;2023-06-10T11:59:12;4.07;;;3.67;;
18376;SDS011;9315;52.624;13.544;2023-06-10T12:01:43;6.95;;;3.92;;
18376;SDS011;9315;52.624;13.544;2023-06-10T12:04:13;3.63;;;3.33;;
18376;SDS011;9315;52.624;13.544;2023-06-10T12:06:51;7.10;;;3.65;;
18376;SDS011;9315;52.624;13.544;2023-06-10T12:09:27;10.73;;;4.18;;
18376;SDS011;9315;52.624;13.544;2023-06-10T12:11:59;6.88;;;3.70;;
18376;SDS011;9315;52.624;13.544;2023-06-10T12:19:59;10.48;;;4.55;;
18376;SDS011;9315;52.624;13.544;2023-06-10T12:22:35;7.22;;;4.93;;
18376;SDS011;9315;52.624;13.544;2023-06-10T12:25:08;7.60;;;4.90;;
18376;SDS011;9315;52.624;13.544;2023-06-10T12:27:39;11.95;;;5.50;;
18376;SDS011;9315;52.624;13.544;2023-06-10T12:30:19;8.45;;;5.00;;
18376;SDS011;9315;52.624;13.544;2023-06-10T12:32:48;9.32;;;5.40;;
18376;SDS011;9315;52.624;13.544;2023-06-10T12:35:17;6.47;;;5.40;;
18376;SDS011;9315;52.624;13.544;2023-06-10T12:38:03;10.00;;;5.90;;
18376;SDS011;9315;52.624;13.544;2023-06-10T12:40:34;7.05;;;5.20;;
18376;SDS011;9315;52.624;13.544;2023-06-10T12:43:06;6.20;;;5.35;;
18376;SDS011;9315;52.624;13.544;2023-06-10T12:45:35;6.00;;;5.07;;
18376;SDS011;9315;52.624;13.544;2023-06-10T12:50:54;6.07;;;5.18;;
18376;SDS011;9315;52.624;13.544;2023-06-10T12:53:24;10.50;;;4.72;;
18376;SDS011;9315;52.624;13.544;2023-06-10T12:55:55;10.60;;;4.90;;
18376;SDS011;9315;52.624;13.544;2023-06-10T12:58:23;8.18;;;4.35;;
18376;SDS011;9315;52.624;13.544;2023-06-10T13:00:51;5.30;;;4.60;;
18376;SDS011;9315;52.624;13.544;2023-06-10T13:03:21;7.95;;;4.60;;
18376;SDS011;9315;52.624;13.544;2023-06-10T13:05:48;10.10;;;4.90;;
18376;SDS011;9315;52.624;13.544;2023-06-10T13:08:15;6.57;;;4.57;;
18376;SDS011;9315;52.624;13.544;2023-06-10T13:10:42;5.85;;;4.50;;
18376;SDS011;9315;52.624;13.544;2023-06-10T13:13:10;8.45;;;4.30;;
18376;SDS011;9315;52.624;13.544;2023-06-10T13:15:37;5.80;;;4.22;;
18376;SDS011;9315;52.624;13.544;2023-06-10T13:18:09;8.20;;;4.68;;
18376;SDS011;9315;52.624;13.544;2023-06-10T13:20:37;9.07;;;4.47;;
18376;SDS011;9315;52.624;13.544;2023-06-10T13:23:05;6.55;;;4.30;;
18376;SDS011;9315;52.624;13.544;2023-06-10T13:25:34;6.00;;;4.05;;
18376;SDS011;9315;52.624;13.544;2023-06-10T13:28:02;5.25;;;4.28;;
18376;SDS011;9315;52.624;13.544;2023-06-10T13:30:30;5.35;;;4.10;;
18376;SDS011;9315;52.624;13.544;2023-06-10T13:32:57;6.63;;;4.38;;
18376;SDS011;9315;52.624;13.544;2023-06-10T13:35:25;8.05;;;4.47;;
18376;SDS011;9315;52.624;13.544;2023-06-10T13:37:52;6.40;;;4.43;;
18376;SDS011;9315;52.624;13.544;2023-06-10T13:40:19;6.78;;;4.55;;
18376;SDS011;9315;52.624;13.544;2023-06-10T13:42:46;8.50;;;4.55;;
18376;SDS011;9315;52.624;13.544;2023-06-10T13:45:16;8.55;;;4.32;;
18376;SDS011;9315;52.624;13.544;2023-06-10T13:47:44;7.75;;;4.32;;
18376;SDS011;9315;52.624;13.544;2023-06-10T13:50:11;5.50;;;4.30;;
18376;SDS011;9315;52.624;13.544;2023-06-10T13:52:41;6.80;;;3.95;;
18376;SDS011;9315;52.624;13.544;2023-06-10T13:55:08;4.68;;;4.00;;
18376;SDS011;9315;52.624;13.544;2023-06-10T13:57:36;4.47;;;3.75;;
18376;SDS011;9315;52.624;13.544;2023-06-10T14:00:03;6.53;;;3.97;;
18376;SDS011;9315;52.624;13.544;2023-06-10T14:02:32;4.30;;;3.83;;
18376;SDS011;9315;52.624;13.544;2023-06-10T14:04:59;7.75;;;3.75;;
18376;SDS011;9315;52.624;13.544;2023-06-10T14:07:26;4.00;;;3.60;;
18376;SDS011;9315;52.624;13.544;2023-06-10T14:09:54;3.92;;;3.33;;
18376;SDS011;9315;52.624;13.544;2023-06-10T14:12:22;4.63;;;3.40;;
18376;SDS011;9315;52.624;13.544;2023-06-10T14:14:49;4.65;;;4.22;;
18376;SDS011;9315;52.624;13.544;2023-06-10T14:17:16;5.45;;;3.85;;
18376;SDS011;9315;52.624;13.544;2023-06-10T14:19:43;4.90;;;3.40;;
18376;SDS011;9315;52.624;13.544;2023-06-10T14:22:11;5.88;;;3.40;;
18376;SDS011;9315;52.624;13.544;2023-06-10T14:24:38;4.22;;;3.40;;
18376;SDS011;9315;52.624;13.544;2023-06-10T14:27:05;6.38;;;3.53;;
18376;SDS011;9315;52.624;13.544;2023-06-10T14:29:33;9.00;;;3.78;;
18376;SDS011;9315;52.624;13.544;2023-06-10T14:32:01;3.47;;;3.17;;
18376;SDS011;9315;52.624;13.544;2023-06-10T14:34:34;4.20;;;3.20;;
18376;SDS011;9315;52.624;13.544;2023-06-10T14:37:01;4.72;;;3.60;;
18376;SDS011;9315;52.624;13.544;2023-06-10T14:39:33;3.92;;;3.38;;
18376;SDS011;9315;52.624;13.544;2023-06-10T14:42:01;6.65;;;3.20;;
18376;SDS011;9315;52.624;13.544;2023-06-10T14:44:28;7.47;;;3.63;;
18376;SDS011;9315;52.624;13.544;2023-06-10T14:46:56;3.80;;;3.40;;
18376;SDS011;9315;52.624;13.544;2023-06-10T14:49:23;4.03;;;3.13;;
18376;SDS011;9315;52.624;13.544;2023-06-10T14:51:50;5.20;;;3.03;;
18376;SDS011;9315;52.624;13.544;2023-06-10T14:54:17;3.17;;;2.85;;
18376;SDS011;9315;52.624;13.544;2023-06-10T14:56:44;8.05;;;3.40;;
18376;SDS011;9315;52.624;13.544;2023-06-10T14:59:12;5.10;;;3.40;;
18376;SDS011;9315;52.624;13.544;2023-06-10T15:01:39;8.15;;;3.47;;
18376;SDS011;9315;52.624;13.544;2023-06-10T15:04:07;4.55;;;3.40;;
18376;SDS011;9315;52.624;13.544;2023-06-10T15:06:34;4.93;;;3.40;;
18376;SDS011;9315;52.624;13.544;2023-06-10T15:09:01;4.72;;;3.40;;
18376;SDS011;9315;52.624;13.544;2023-06-10T15:11:29;5.68;;;3.55;;
18376;SDS011;9315;52.624;13.544;2023-06-10T15:13:57;8.60;;;3.30;;
18376;SDS011;9315;52.624;13.544;2023-06-10T15:16:26;7.10;;;3.50;;
18376;SDS011;9315;52.624;13.544;2023-06-10T15:18:53;13.68;;;3.60;;
18376;SDS011;9315;52.624;13.544;2023-06-10T15:21:21;9.38;;;3.60;;
18376;SDS011;9315;52.624;13.544;2023-06-10T15:23:48;4.80;;;3.40;;
18376;SDS011;9315;52.624;13.544;2023-06-10T15:26:17;7.35;;;3.38;;
18376;SDS011;9315;52.624;13.544;2023-06-10T15:28:47;6.35;;;3.78;;